createdAt,value
2022-10-11T00:02:48.055Z,99379.91
2022-10-11T00:05:50.767Z,99378.22
2022-10-11T00:08:53.457Z,99378.22
2022-10-11T00:11:56.402Z,99384.41
2022-10-11T00:14:59.088Z,99377.56
2022-10-11T00:18:05.428Z,99381.75
2022-10-11T00:21:09.339Z,99388.75
2022-10-11T00:24:12.605Z,99379.06
2022-10-11T00:27:15.316Z,99385.25
2022-10-11T00:30:19.095Z,99380.75
2022-10-11T00:33:24.147Z,99386.25
2022-10-11T00:36:26.891Z,99388.75
2022-10-11T00:39:29.564Z,99389.75
2022-10-11T00:42:32.665Z,99391.59
2022-10-11T00:45:53.871Z,99383.88
2022-10-11T00:49:02.051Z,99390.06
2022-10-11T00:52:07.514Z,99385.56
2022-10-11T00:55:13.411Z,99394.28
2022-10-11T00:58:16.444Z,99387.38
2022-10-11T01:01:19.275Z,99387.38
2022-10-11T01:04:23.362Z,99396.09
2022-10-11T01:07:28.198Z,99394.44
2022-10-11T01:10:30.916Z,99397.94
2022-10-11T01:13:41.627Z,99401.91
2022-10-11T01:16:50.543Z,99399.06
2022-10-11T01:20:16.946Z,99399.06
2022-10-11T01:23:27.477Z,99406.09
2022-10-11T01:26:40.638Z,99404.41
2022-10-11T01:29:47.443Z,99407.09
2022-10-11T01:32:55.429Z,99415.28
2022-10-11T01:36:05.266Z,99412.44
2022-10-11T01:39:11.654Z,99410.75
2022-10-11T01:42:14.665Z,99416.28
2022-10-11T01:45:18.212Z,99411.75
2022-10-11T01:48:22.256Z,99415.44
2022-10-11T01:51:26.586Z,99410.94
2022-10-11T01:55:07.586Z,99423.00
2022-10-11T01:58:09.666Z,99411.75
2022-10-11T02:01:21.284Z,99412.59
2022-10-11T02:04:30.578Z,99420.63
2022-10-11T02:07:37.772Z,99415.09
2022-10-11T02:10:43.602Z,99417.94
2022-10-11T02:13:48.321Z,99412.59
2022-10-11T02:16:54.468Z,99418.78
2022-10-11T02:20:00.308Z,99421.16
2022-10-11T02:23:06.771Z,99417.78
2022-10-11T02:26:10.724Z,99418.63
2022-10-11T02:29:15.396Z,99425.81
2022-10-11T02:32:18.708Z,99426.81
2022-10-11T02:35:25.466Z,99427.63
2022-10-11T02:38:31.044Z,99425.97
2022-10-11T02:41:37.542Z,99435.81
2022-10-11T02:44:43.353Z,99431.31
2022-10-11T02:47:46.304Z,99434.31
2022-10-11T02:50:50.323Z,99427.25
2022-10-11T02:53:52.980Z,99436.16
2022-10-11T02:56:55.680Z,99429.09
2022-10-11T02:59:58.319Z,99435.44
2022-10-11T03:03:01.009Z,99429.09
2022-10-11T03:06:05.848Z,99431.75
2022-10-11T03:09:08.791Z,99432.59
2022-10-11T03:12:11.402Z,99433.47
2022-10-11T03:15:14.138Z,99437.13
2022-10-11T03:18:16.819Z,99438.81
2022-10-11T03:21:20.857Z,99434.31
2022-10-11T03:24:23.664Z,99437.13
2022-10-11T03:27:26.395Z,99442.47
2022-10-11T03:30:29.081Z,99432.59
2022-10-11T03:33:31.749Z,99431.94
2022-10-11T03:36:35.789Z,99440.78
2022-10-11T03:39:38.710Z,99437.28
2022-10-11T03:42:41.336Z,99438.13
2022-10-11T03:45:44.019Z,99440.94
2022-10-11T03:48:46.750Z,99438.94
2022-10-11T03:51:50.738Z,99446.97
2022-10-11T03:54:53.505Z,99443.47
2022-10-11T03:57:56.184Z,99447.13
2022-10-11T04:00:58.910Z,99440.94
2022-10-11T04:04:01.596Z,99448.97
2022-10-11T04:07:05.679Z,99450.63
2022-10-11T04:10:08.669Z,99447.97
2022-10-11T04:13:11.808Z,99454.31
2022-10-11T04:16:14.494Z,99455.31
2022-10-11T04:19:17.497Z,99464.00
2022-10-11T04:22:21.492Z,99462.16
2022-10-11T04:25:24.156Z,99469.34
2022-10-11T04:28:26.985Z,99470.50
2022-10-11T04:31:29.740Z,99472.03
2022-10-11T04:34:32.548Z,99474.84
2022-10-11T04:37:36.600Z,99477.69
2022-10-11T04:40:39.317Z,99477.69
2022-10-11T04:43:41.962Z,99475.84
2022-10-11T04:46:44.604Z,99480.53
2022-10-11T04:49:47.283Z,99484.03
2022-10-11T04:52:51.305Z,99479.34
2022-10-11T04:55:58.493Z,99486.84
2022-10-11T04:59:01.161Z,99491.88
2022-10-11T05:02:03.988Z,99498.06
2022-10-11T05:05:07.262Z,99499.91
2022-10-11T05:08:11.339Z,99497.41
2022-10-11T05:11:16.101Z,99504.56
2022-10-11T05:14:19.001Z,99500.91
2022-10-11T05:17:22.058Z,99500.19
2022-10-11T05:20:24.751Z,99494.84
2022-10-11T05:23:28.859Z,99509.22
2022-10-11T05:26:31.621Z,99509.53
2022-10-11T05:29:34.275Z,99513.72
2022-10-11T05:32:36.957Z,99528.63
2022-10-11T08:07:02.561Z,99531.38
2022-10-11T08:10:05.622Z,99539.03
2022-10-11T08:13:08.329Z,99536.22
2022-10-11T08:16:12.359Z,99541.94
2022-10-11T08:19:15.077Z,99532.22
2022-10-11T08:22:19.286Z,99546.56
2022-10-11T08:25:21.983Z,99550.44
2022-10-11T08:28:24.688Z,99556.34
2022-10-11T08:31:27.502Z,99553.91
2022-10-11T08:34:30.216Z,99553.22
2022-10-11T08:37:34.816Z,99558.81
2022-10-11T08:40:37.723Z,99553.34
2022-10-11T08:43:45.746Z,99543.28
2022-10-11T08:46:50.666Z,99555.63
2022-10-11T08:49:53.467Z,99555.47
2022-10-11T08:52:58.876Z,99551.81
2022-10-11T08:56:02.406Z,99552.81
2022-10-11T08:59:09.035Z,99541.44
2022-10-11T09:02:17.773Z,99554.78
2022-10-11T09:05:21.005Z,99556.31
2022-10-11T09:08:30.120Z,99546.31
2022-10-11T09:11:38.493Z,99547.63
2022-10-11T09:14:49.717Z,99542.28
2022-10-11T09:18:04.390Z,99536.53
2022-10-11T09:21:14.371Z,99544.13
2022-10-11T09:24:30.262Z,99548.72
2022-10-11T09:28:00.865Z,99547.41
2022-10-11T09:31:02.975Z,99553.16
2022-10-11T09:34:12.174Z,99554.94
2022-10-11T09:37:23.314Z,99556.88
2022-10-11T09:40:34.963Z,99550.94
2022-10-11T09:43:39.641Z,99552.34
2022-10-11T09:46:43.681Z,99550.75
2022-10-11T09:49:48.939Z,99556.91
2022-10-11T09:52:52.656Z,99553.25
2022-10-11T09:56:04.153Z,99541.44
2022-10-11T09:59:08.640Z,99553.41
2022-10-11T10:02:29.175Z,99557.16
2022-10-11T10:05:33.511Z,99551.50
2022-10-11T10:08:38.785Z,99546.56
2022-10-11T10:11:43.830Z,99555.41
2022-10-11T10:14:55.481Z,99542.47
2022-10-11T10:17:59.108Z,99554.53
2022-10-11T10:21:02.126Z,99552.72
2022-10-11T10:24:06.889Z,99553.66
2022-10-11T10:27:17.409Z,99537.38
2022-10-11T10:30:20.856Z,99534.03
2022-10-11T10:33:24.503Z,99540.22
2022-10-11T10:36:29.095Z,99546.75
2022-10-11T10:39:36.570Z,99549.75
2022-10-11T10:42:40.713Z,99543.13
2022-10-11T10:46:07.388Z,99541.81
2022-10-11T10:52:51.161Z,99541.75
2022-10-11T10:55:59.648Z,99537.00
2022-10-11T10:59:13.314Z,99530.19
2022-10-11T11:02:46.075Z,99532.19
2022-10-11T11:05:46.536Z,99541.88
2022-10-11T11:08:58.356Z,99534.19
2022-10-11T11:12:07.099Z,99538.53
2022-10-11T11:15:13.296Z,99542.03
2022-10-11T11:18:25.890Z,99532.34
2022-10-11T11:21:34.955Z,99532.88
2022-10-11T11:24:48.110Z,99533.56
2022-10-11T11:27:55.645Z,99537.69
2022-10-11T11:31:04.534Z,99545.72
2022-10-11T11:34:13.723Z,99548.53
2022-10-11T11:37:25.678Z,99539.91
2022-10-11T11:40:34.919Z,99547.09
2022-10-11T11:43:39.573Z,99547.38
2022-10-11T11:46:45.529Z,99550.28
2022-10-11T11:49:51.542Z,99552.81
2022-10-11T11:52:57.136Z,99553.78
2022-10-11T11:56:01.497Z,99554.63
2022-10-11T11:59:07.667Z,99549.53
2022-10-11T12:02:25.915Z,99549.97
2022-10-11T12:05:30.093Z,99552.88
2022-10-11T12:08:34.423Z,99557.16
2022-10-11T12:11:47.211Z,99563.41
2022-10-11T12:14:49.908Z,99557.94
2022-10-11T12:18:14.819Z,99564.34
2022-10-11T12:21:23.123Z,99557.06
2022-10-11T12:24:25.925Z,99563.66
2022-10-11T12:27:39.182Z,99564.50
2022-10-11T12:30:53.237Z,99560.44
2022-10-11T12:34:18.150Z,99566.56
2022-10-11T12:37:39.647Z,99568.94
2022-10-11T12:40:43.054Z,99567.41
2022-10-11T12:44:09.865Z,99569.38
2022-10-11T12:47:28.506Z,99560.34
2022-10-11T12:50:41.734Z,99566.34
2022-10-11T12:54:14.750Z,99562.34
2022-10-11T12:57:34.339Z,99563.78
2022-10-11T13:00:43.572Z,99569.59
2022-10-11T13:03:49.171Z,99558.94
2022-10-11T13:06:54.877Z,99557.22
2022-10-11T13:09:57.812Z,99573.44
2022-10-11T13:13:04.499Z,99560.81
2022-10-11T13:16:10.356Z,99573.19
2022-10-11T13:19:14.166Z,99567.16
2022-10-11T13:22:20.029Z,99577.13
2022-10-11T13:25:24.608Z,99575.31
2022-10-11T13:28:27.403Z,99574.88
2022-10-11T13:31:30.246Z,99585.16
2022-10-11T13:34:35.616Z,99586.69
2022-10-11T13:37:43.485Z,99589.84
2022-10-11T13:40:50.132Z,99592.03
2022-10-11T13:43:54.279Z,99602.72
2022-10-11T13:46:57.649Z,99603.00
2022-10-11T13:50:04.462Z,99605.50
2022-10-11T13:53:23.358Z,99603.25
2022-10-11T13:56:26.489Z,99598.91
2022-10-11T13:59:29.257Z,99593.47
2022-10-11T14:02:33.607Z,99599.38
2022-10-11T14:05:37.929Z,99598.75
2022-10-11T14:08:45.937Z,99602.97
2022-10-11T14:11:48.761Z,99606.53
2022-10-11T14:14:51.570Z,99604.94
2022-10-11T14:17:54.303Z,99611.94
2022-10-11T14:20:57.087Z,99614.63
2022-10-11T14:24:06.106Z,99614.25
2022-10-11T14:27:12.096Z,99614.25
2022-10-11T14:30:31.985Z,99620.44
2022-10-11T14:33:35.122Z,99613.31
2022-10-11T14:36:37.776Z,99609.38
2022-10-11T14:39:42.600Z,99623.72
2022-10-11T14:42:45.300Z,99632.59
2022-10-11T14:45:48.007Z,99636.09
2022-10-11T14:48:55.482Z,99633.47
2022-10-11T14:52:00.182Z,99637.13
2022-10-11T14:55:04.271Z,99645.69
2022-10-11T14:58:07.265Z,99648.22
2022-10-11T15:01:11.843Z,99645.97
2022-10-11T15:04:14.563Z,99652.31
2022-10-11T15:07:17.320Z,99661.41
2022-10-11T15:10:23.006Z,99661.00
2022-10-11T15:13:25.811Z,99659.44
2022-10-11T15:16:28.490Z,99665.56
2022-10-11T15:19:31.191Z,99671.75
2022-10-11T15:22:33.879Z,99675.00
2022-10-11T15:25:38.738Z,99681.84
2022-10-11T15:28:41.516Z,99687.19
2022-10-11T15:31:44.631Z,99684.94
2022-10-11T15:34:47.372Z,99679.06
2022-10-11T15:37:52.855Z,99683.66
2022-10-11T15:40:56.979Z,99685.94
2022-10-11T15:43:59.680Z,99684.41
2022-10-11T15:47:02.428Z,99680.19
2022-10-11T15:50:05.428Z,99682.47
2022-10-11T15:53:08.989Z,99690.13
2022-10-11T15:56:16.250Z,99695.44
2022-10-11T15:59:18.944Z,99695.63
2022-10-11T16:02:21.676Z,99691.69
2022-10-11T16:05:25.366Z,99698.31
2022-10-11T16:08:30.702Z,99697.81
2022-10-11T16:11:34.800Z,99701.31
2022-10-11T16:14:37.564Z,99706.53
2022-10-11T16:17:40.282Z,99711.84
2022-10-11T16:20:44.626Z,99706.97
2022-10-11T16:23:47.337Z,99708.34
2022-10-11T16:26:54.262Z,99703.72
2022-10-11T16:29:57.099Z,99715.50
2022-10-11T16:32:59.770Z,99713.25
2022-10-11T16:36:28.893Z,99721.94
2022-10-11T16:39:31.780Z,99715.69
2022-10-11T16:42:39.145Z,99717.59
2022-10-11T16:45:41.888Z,99721.41
2022-10-11T17:54:22.114Z,99715.72
2022-10-11T17:57:25.258Z,99722.16
2022-10-11T18:00:27.960Z,99723.53
2022-10-11T18:03:30.672Z,99714.81
2022-10-11T18:06:34.311Z,99710.03
2022-10-11T18:09:38.367Z,99711.56
2022-10-11T18:12:41.073Z,99715.09
2022-10-11T18:15:43.796Z,99718.75
2022-10-11T18:18:46.482Z,99719.44
2022-10-11T18:21:49.100Z,99720.41
2022-10-11T18:24:53.175Z,99722.94
2022-10-11T18:27:55.828Z,99728.28
2022-10-11T18:31:00.444Z,99724.75
2022-10-11T18:34:03.226Z,99731.47
2022-10-11T18:37:05.929Z,99737.66
2022-10-11T18:40:10.563Z,99735.03
2022-10-11T18:43:13.335Z,99737.53
2022-10-11T18:46:16.015Z,99728.50
2022-10-11T18:49:18.730Z,99729.06
2022-10-11T18:52:21.482Z,99735.66
2022-10-11T18:55:25.551Z,99730.34
2022-10-11T18:58:32.639Z,99729.91
2022-10-11T19:01:38.015Z,99737.66
2022-10-11T19:04:41.170Z,99732.31
2022-10-11T19:07:44.419Z,99737.81
2022-10-11T19:10:48.615Z,99739.63
2022-10-11T19:13:56.395Z,99734.97
2022-10-11T19:16:59.366Z,99745.81
2022-10-11T19:20:02.527Z,99740.59
2022-10-11T19:23:05.492Z,99739.63
2022-10-11T19:26:13.318Z,99737.66
2022-10-11T19:29:18.703Z,99739.50
2022-10-11T19:32:21.691Z,99732.75
2022-10-11T19:35:24.469Z,99742.16
2022-10-11T19:38:27.245Z,99736.66
2022-10-11T19:41:31.394Z,99733.69
2022-10-11T19:44:38.719Z,99730.47
2022-10-11T19:47:42.415Z,99741.00
2022-10-11T19:50:45.094Z,99738.91
2022-10-11T19:53:47.946Z,99733.69
2022-10-11T19:56:52.591Z,99738.06
2022-10-11T19:59:58.135Z,99736.50
2022-10-11T20:03:01.270Z,99740.88
2022-10-11T20:06:04.899Z,99737.22
2022-10-11T20:09:28.384Z,99749.44
2022-10-11T20:12:32.268Z,99741.38
2022-10-11T20:15:37.672Z,99734.63
2022-10-11T20:18:40.679Z,99742.97
2022-10-11T20:21:44.012Z,99742.97
2022-10-11T20:24:46.664Z,99740.16
2022-10-11T20:27:50.679Z,99730.75
2022-10-11T20:30:53.409Z,99740.44
2022-10-11T20:33:57.213Z,99741.44
2022-10-11T20:36:59.819Z,99744.25
2022-10-11T20:40:02.544Z,99741.69
2022-10-11T20:43:06.972Z,99746.09
2022-10-11T20:46:10.687Z,99737.75
2022-10-11T20:49:13.635Z,99742.41
2022-10-11T20:52:16.262Z,99745.25
2022-10-11T20:55:18.977Z,99733.69
2022-10-11T20:58:23.398Z,99741.84
2022-10-11T21:01:27.365Z,99742.56
2022-10-11T21:04:30.404Z,99754.38
2022-10-11T21:07:33.296Z,99752.53
2022-10-11T21:10:36.534Z,99753.78
2022-10-11T21:13:40.614Z,99758.28
2022-10-11T21:16:43.261Z,99758.28
2022-10-11T21:19:45.928Z,99763.06
2022-10-11T21:22:48.643Z,99763.78
2022-10-11T21:25:51.307Z,99760.53
2022-10-11T21:28:55.431Z,99766.72
2022-10-11T21:31:58.114Z,99768.03
2022-10-11T21:35:01.042Z,99775.03
2022-10-11T21:38:03.662Z,99769.53
2022-10-11T21:41:06.874Z,99776.03
2022-10-11T21:44:11.040Z,99773.91
2022-10-11T21:47:13.690Z,99776.03
2022-10-11T21:50:16.416Z,99773.34
2022-10-11T21:53:19.056Z,99774.19
2022-10-11T21:56:21.837Z,99778.84
2022-10-11T21:59:25.929Z,99780.53
2022-10-11T22:02:28.622Z,99780.66
2022-10-11T22:05:31.392Z,99784.03
2022-10-11T22:08:34.139Z,99774.34
2022-10-11T22:11:36.980Z,99782.63
2022-10-11T22:14:41.071Z,99783.47
2022-10-11T22:17:43.709Z,99775.47
2022-10-11T22:20:46.618Z,99775.47
2022-10-11T22:23:50.145Z,99774.63
2022-10-11T22:26:52.762Z,99778.69
2022-10-11T22:29:56.827Z,99782.34
2022-10-11T22:32:59.532Z,99776.31
2022-10-11T22:36:02.975Z,99790.50
2022-10-11T22:39:08.180Z,99784.47
2022-10-11T22:42:10.908Z,99799.63
2022-10-11T22:45:15.002Z,99789.66
2022-10-11T22:48:17.744Z,99795.44
2022-10-11T22:51:20.420Z,99795.13
2022-10-11T22:54:23.141Z,99800.78
2022-10-11T22:57:25.813Z,99801.31
2022-10-11T23:00:29.914Z,99798.09
2022-10-11T23:03:32.659Z,99797.97
2022-10-11T23:06:35.342Z,99794.59
2022-10-11T23:09:38.061Z,99802.00
2022-10-11T23:12:41.724Z,99810.63
2022-10-11T23:15:46.137Z,99799.22
2022-10-11T23:18:48.971Z,99799.09
2022-10-11T23:21:51.625Z,99797.53
2022-10-11T23:24:54.434Z,99802.88
2022-10-11T23:27:57.119Z,99800.22
2022-10-11T23:31:01.227Z,99801.34
2022-10-11T23:34:03.912Z,99801.34
2022-10-11T23:37:06.826Z,99795.16
2022-10-11T23:40:09.985Z,99799.53
2022-10-11T23:43:12.704Z,99796.16
2022-10-11T23:46:16.734Z,99805.00
2022-10-11T23:49:19.415Z,99800.78
2022-10-11T23:52:22.102Z,99801.50
2022-10-11T23:55:24.768Z,99802.34
2022-10-11T23:58:27.438Z,99813.13
